Time;durP1;ratioP1;P1;durP2;ratioP2;P2;SDS_P1;SDS_P2;PMS_P1;PMS_P2;Temp;Humidity;BMP_temperature;BMP_pressure;BME280_temperature;BME280_humidity;BME280_pressure;Samples;Min_cycle;Max_cycle;Signal;HPM_P1;HPM_P2
2021/09/18 11:57:11;;;;;;;6.25;1.52;;;;;;;;;;1042980;27;99809;-79
2021/09/18 11:58:04;;;;;;;7.38;1.50;;;;;;;;;;1037997;28;99817;-83
2021/09/18 11:58:50;;;;;;;6.68;1.63;;;;;;;;;;1036353;28;99807;-79
2021/09/18 11:59:32;;;;;;;5.13;1.20;;;;;;;;;;1037287;28;100129;-78
2021/09/18 12:00:17;;;;;;;6.33;1.50;;;;;;;;;;1007179;27;1547151;-78
2021/09/18 12:01:11;;;;;;;5.20;1.63;;;;;;;;;;1037711;28;99861;-82
2021/09/18 12:01:53;;;;;;;3.47;1.13;;;;;;;;;;1007266;27;1559623;-80
2021/09/18 12:02:36;;;;;;;5.28;1.27;;;;;;;;;;1049993;27;99753;-78
2021/09/18 12:03:26;;;;;;;4.25;1.10;;;;;;;;;;1037520;28;100107;-79
2021/09/18 12:04:44;;;;;;;4.68;1.35;;;;;;;;;;1049607;27;100055;-78
2021/09/18 12:05:27;;;;;;;4.93;1.25;;;;;;;;;;1037405;28;100166;-75
2021/09/18 12:06:14;;;;;;;6.20;1.50;;;;;;;;;;1037646;28;100159;-82
2021/09/18 12:07:03;;;;;;;4.20;1.30;;;;;;;;;;1041238;28;99895;-80
2021/09/18 12:07:49;;;;;;;6.10;1.42;;;;;;;;;;1041432;28;99925;-74
2021/09/18 12:08:35;;;;;;;5.72;1.33;;;;;;;;;;1037511;28;99810;-82
2021/09/18 12:09:26;;;;;;;6.07;1.30;;;;;;;;;;1037586;28;99895;-90
2021/09/18 12:10:22;;;;;;;3.93;1.27;;;;;;;;;;981673;27;2240650;-78
2021/09/18 12:11:08;;;;;;;6.45;1.80;;;;;;;;;;1037631;28;99904;-80
2021/09/18 12:11:54;;;;;;;5.03;1.27;;;;;;;;;;1037402;28;100113;-85
2021/09/18 12:12:37;;;;;;;4.47;1.13;;;;;;;;;;1052397;27;100004;-78
2021/09/18 12:13:23;;;;;;;4.70;1.35;;;;;;;;;;1058674;27;100153;-80
2021/09/18 12:14:05;;;;;;;7.90;1.55;;;;;;;;;;1041275;28;100005;-80
2021/09/18 12:14:53;;;;;;;5.53;1.25;;;;;;;;;;1037332;28;100051;-85
2021/09/18 12:15:43;;;;;;;5.72;1.42;;;;;;;;;;1037265;28;99984;-77
2021/09/18 12:16:29;;;;;;;7.35;1.35;;;;;;;;;;1037199;28;99963;-78
2021/09/18 12:17:18;;;;;;;4.85;1.40;;;;;;;;;;1037366;28;99997;-87
2021/09/18 12:18:07;;;;;;;4.93;1.55;;;;;;;;;;1054094;27;99557;-74
2021/09/18 12:18:57;;;;;;;3.92;1.05;;;;;;;;;;1041718;28;99953;-78
2021/09/18 12:19:40;;;;;;;3.20;1.50;;;;;;;;;;1009993;27;1476069;-83
2021/09/18 12:20:23;;;;;;;5.13;1.40;;;;;;;;;;1041703;28;100083;-81
2021/09/18 12:21:11;;;;;;;5.80;1.30;;;;;;;;;;1037880;28;99831;-78
2021/09/18 12:21:54;;;;;;;7.72;1.55;;;;;;;;;;1038148;27;99852;-76
2021/09/18 12:22:40;;;;;;;4.05;1.25;;;;;;;;;;1063464;27;99401;-79
2021/09/18 12:23:25;;;;;;;5.57;1.20;;;;;;;;;;1037842;28;99496;-78
2021/09/18 12:24:10;;;;;;;5.35;1.73;;;;;;;;;;1037561;28;100496;-81
2021/09/18 12:24:53;;;;;;;7.07;1.70;;;;;;;;;;1050330;27;99750;-85
2021/09/18 12:25:38;;;;;;;5.78;1.73;;;;;;;;;;1062419;27;100041;-78
2021/09/18 12:26:20;;;;;;;7.65;1.52;;;;;;;;;;1036597;28;100008;-80
2021/09/18 12:27:25;;;;;;;4.40;1.33;;;;;;;;;;1037798;28;99763;-81
2021/09/18 12:28:11;;;;;;;6.75;1.45;;;;;;;;;;1062830;27;99912;-77
2021/09/18 12:29:08;;;;;;;6.78;1.90;;;;;;;;;;1037154;28;99988;-83
2021/09/18 12:29:56;;;;;;;13.64;6.08;;;;;;;;;;1033387;27;1795683;-80
2021/09/18 12:30:42;;;;;;;9.77;4.72;;;;;;;;;;1037302;28;99945;-81
2021/09/18 12:31:27;;;;;;;12.68;4.75;;;;;;;;;;1062333;27;100021;-77
2021/09/18 12:32:09;;;;;;;11.75;3.30;;;;;;;;;;1034518;28;100051;-80
2021/09/18 12:33:06;;;;;;;11.80;3.90;;;;;;;;;;1039915;28;99867;-77
2021/09/18 12:33:51;;;;;;;9.23;3.08;;;;;;;;;;1037836;28;99825;-78
2021/09/18 12:34:38;;;;;;;12.50;3.65;;;;;;;;;;1037841;28;99817;-80
2021/09/18 12:35:20;;;;;;;7.80;2.92;;;;;;;;;;1037774;28;99421;-81
2021/09/18 12:36:13;;;;;;;7.45;2.92;;;;;;;;;;1037761;28;100190;-77
2021/09/18 12:37:07;;;;;;;8.02;3.10;;;;;;;;;;1037684;28;99835;-79
2021/09/18 12:37:59;;;;;;;8.38;2.53;;;;;;;;;;1037752;28;99921;-77
2021/09/18 12:38:43;;;;;;;8.63;3.72;;;;;;;;;;1041972;28;99757;-76
2021/09/18 12:39:34;;;;;;;10.88;5.95;;;;;;;;;;1063355;27;99875;-79
2021/09/18 12:40:20;;;;;;;9.00;4.53;;;;;;;;;;1063083;27;99751;-78
2021/09/18 12:41:12;;;;;;;10.55;4.45;;;;;;;;;;1063087;27;99933;-81
2021/09/18 12:42:05;;;;;;;6.95;3.63;;;;;;;;;;1037676;28;99767;-78
2021/09/18 12:43:18;;;;;;;7.82;3.70;;;;;;;;;;1041510;28;99920;-79
2021/09/18 12:44:04;;;;;;;11.43;4.07;;;;;;;;;;1037686;28;99770;-78
2021/09/18 12:44:48;;;;;;;12.00;4.65;;;;;;;;;;1063143;27;99973;-77
2021/09/18 12:45:27;;;;;;;10.38;4.03;;;;;;;;;;1051780;27;101991;-77
2021/09/18 12:46:14;;;;;;;9.38;3.35;;;;;;;;;;1037814;28;99766;-83
2021/09/18 12:46:57;;;;;;;7.90;3.20;;;;;;;;;;1038021;28;99760;-78
2021/09/18 12:47:42;;;;;;;10.00;3.70;;;;;;;;;;1037735;28;99985;-76
2021/09/18 12:48:25;;;;;;;13.35;5.28;;;;;;;;;;1046135;27;99772;-79
2021/09/18 12:49:10;;;;;;;9.52;4.97;;;;;;;;;;1042053;27;99881;-77
2021/09/18 12:49:53;;;;;;;13.93;5.85;;;;;;;;;;1046107;27;99986;-78
2021/09/18 12:50:51;;;;;;;14.10;4.97;;;;;;;;;;1037649;28;99780;-78
2021/09/18 12:51:37;;;;;;;12.52;5.00;;;;;;;;;;1041659;27;100064;-78
2021/09/18 12:52:31;;;;;;;10.93;3.85;;;;;;;;;;1041925;28;99407;-79
2021/09/18 12:53:47;;;;;;;8.13;3.05;;;;;;;;;;1037925;28;99882;-77
2021/09/18 12:54:45;;;;;;;9.75;3.38;;;;;;;;;;1037848;28;99788;-78
2021/09/18 12:55:28;;;;;;;8.18;2.63;;;;;;;;;;1037851;28;99822;-77
2021/09/18 12:56:30;;;;;;;7.05;2.97;;;;;;;;;;1042210;28;99795;-83
2021/09/18 12:57:20;;;;;;;5.20;2.55;;;;;;;;;;1051018;27;99792;-76
2021/09/18 12:58:01;;;;;;;5.37;2.10;;;;;;;;;;1007923;27;1549597;-77
2021/09/18 12:58:56;;;;;;;4.57;1.50;;;;;;;;;;1037778;28;99839;-76
2021/09/18 12:59:49;;;;;;;7.03;1.65;;;;;;;;;;1050789;27;99781;-79
2021/09/18 13:00:33;;;;;;;4.65;1.42;;;;;;;;;;1038456;27;99828;-81
2021/09/18 13:01:18;;;;;;;6.78;2.08;;;;;;;;;;1046731;27;99753;-81
2021/09/18 13:02:05;;;;;;;6.93;2.35;;;;;;;;;;1041818;28;101543;-77
2021/09/18 13:02:46;;;;;;;4.18;1.60;;;;;;;;;;979696;27;2250588;-79
2021/09/18 13:03:35;;;;;;;4.55;1.60;;;;;;;;;;1037543;27;100029;-82
2021/09/18 13:04:31;;;;;;;4.90;1.80;;;;;;;;;;1046406;27;99802;-77
2021/09/18 13:05:20;;;;;;;5.88;1.50;;;;;;;;;;1037538;28;100169;-77
2021/09/18 13:06:06;;;;;;;4.28;1.67;;;;;;;;;;1058701;27;100029;-77
2021/09/18 13:07:05;;;;;;;3.33;1.23;;;;;;;;;;1050165;27;99771;-79
2021/09/18 13:07:55;;;;;;;4.32;1.63;;;;;;;;;;1037518;28;100118;-78
2021/09/18 13:09:16;;;;;;;4.75;1.20;;;;;;;;;;1037836;28;99449;-77
2021/09/18 13:10:02;;;;;;;5.95;1.67;;;;;;;;;;1063208;27;100761;-77
2021/09/18 13:10:47;;;;;;;4.43;1.33;;;;;;;;;;1037910;28;99902;-81
2021/09/18 13:11:48;;;;;;;3.58;1.10;;;;;;;;;;1038037;28;99893;-80
2021/09/18 13:12:38;;;;;;;8.38;1.40;;;;;;;;;;1037651;28;99831;-79
2021/09/18 13:13:34;;;;;;;6.53;1.83;;;;;;;;;;1063254;27;99796;-78
2021/09/18 13:14:31;;;;;;;4.25;1.67;;;;;;;;;;1050357;27;99809;-78
2021/09/18 13:15:16;;;;;;;4.15;1.23;;;;;;;;;;1037846;28;99922;-78
2021/09/18 13:16:00;;;;;;;5.88;1.55;;;;;;;;;;1050208;27;99400;-78
2021/09/18 13:16:56;;;;;;;3.88;1.30;;;;;;;;;;1045966;27;99792;-78
2021/09/18 13:17:56;;;;;;;3.75;1.55;;;;;;;;;;1058796;27;99897;-78
2021/09/18 13:18:39;;;;;;;6.33;1.20;;;;;;;;;;1007781;27;1553173;-79
2021/09/18 13:19:23;;;;;;;4.57;1.50;;;;;;;;;;1050376;27;99760;-78
2021/09/18 13:20:17;;;;;;;3.45;1.40;;;;;;;;;;1035761;28;99957;-79
2021/09/18 13:21:01;;;;;;;4.57;1.15;;;;;;;;;;1041873;28;99756;-78
2021/09/18 13:21:45;;;;;;;4.75;1.35;;;;;;;;;;1037791;28;100137;-79
2021/09/18 13:22:34;;;;;;;4.82;1.20;;;;;;;;;;1046292;27;99783;-80
2021/09/18 13:23:21;;;;;;;3.38;1.50;;;;;;;;;;1050417;27;99782;-77
2021/09/18 13:24:05;;;;;;;4.82;1.40;;;;;;;;;;1050496;27;99729;-80
2021/09/18 13:24:52;;;;;;;4.35;1.08;;;;;;;;;;1037820;28;99924;-80
2021/09/18 13:25:34;;;;;;;7.50;1.75;;;;;;;;;;1038036;28;99779;-79
2021/09/18 13:26:19;;;;;;;3.03;1.30;;;;;;;;;;1037807;28;99773;-80
2021/09/18 13:27:03;;;;;;;2.08;0.90;;;;;;;;;;1037901;28;99880;-80
2021/09/18 13:27:48;;;;;;;7.33;1.30;;;;;;;;;;1007446;27;1562862;-79
2021/09/18 13:28:29;;;;;;;3.13;0.87;;;;;;;;;;1007118;27;1572285;-80
2021/09/18 13:29:14;;;;;;;5.85;1.40;;;;;;;;;;1038052;28;99906;-78
2021/09/18 13:29:58;;;;;;;4.47;1.55;;;;;;;;;;1046114;27;99701;-78
2021/09/18 13:30:42;;;;;;;5.47;1.48;;;;;;;;;;1034538;28;99846;-77
2021/09/18 13:31:25;;;;;;;5.00;1.20;;;;;;;;;;1050634;27;99729;-76
2021/09/18 13:32:10;;;;;;;5.18;1.20;;;;;;;;;;1037858;28;99779;-77
2021/09/18 13:32:53;;;;;;;3.88;1.05;;;;;;;;;;1050433;27;99776;-77
2021/09/18 13:33:37;;;;;;;4.97;1.30;;;;;;;;;;1037786;28;99894;-77
2021/09/18 13:34:21;;;;;;;4.93;1.20;;;;;;;;;;1046074;27;99748;-78
2021/09/18 13:35:05;;;;;;;4.57;1.13;;;;;;;;;;1037878;28;99529;-77
2021/09/18 13:35:48;;;;;;;3.13;1.13;;;;;;;;;;1058321;27;99796;-76
2021/09/18 13:36:31;;;;;;;3.27;1.30;;;;;;;;;;998534;27;1745600;-77
2021/09/18 13:37:14;;;;;;;3.55;1.20;;;;;;;;;;1045962;27;99987;-79
2021/09/18 13:37:59;;;;;;;4.75;1.25;;;;;;;;;;1041678;28;99783;-77
2021/09/18 13:38:42;;;;;;;3.85;1.05;;;;;;;;;;1045887;27;99907;-77
2021/09/18 13:39:27;;;;;;;4.28;1.20;;;;;;;;;;1037629;28;99888;-77
2021/09/18 13:40:11;;;;;;;7.25;1.88;;;;;;;;;;1045551;27;100068;-77
2021/09/18 13:40:55;;;;;;;4.10;1.23;;;;;;;;;;1037616;28;100194;-78
2021/09/18 13:41:38;;;;;;;2.60;0.90;;;;;;;;;;1050207;27;99738;-79
2021/09/18 13:42:26;;;;;;;5.15;1.60;;;;;;;;;;1041564;28;99947;-78
2021/09/18 13:43:08;;;;;;;3.22;1.15;;;;;;;;;;1037305;28;100122;-78
2021/09/18 13:43:52;;;;;;;5.18;1.48;;;;;;;;;;1037541;28;100097;-78
2021/09/18 13:44:47;;;;;;;5.25;1.50;;;;;;;;;;1037299;28;99834;-74
2021/09/18 13:45:31;;;;;;;6.75;1.30;;;;;;;;;;1041805;28;99962;-79
2021/09/18 13:46:14;;;;;;;15.20;1.67;;;;;;;;;;1037433;28;100159;-76
2021/09/18 13:46:59;;;;;;;5.68;1.50;;;;;;;;;;1037405;28;99830;-75
2021/09/18 13:47:42;;;;;;;2.70;0.95;;;;;;;;;;1050036;27;99888;-78
2021/09/18 13:48:26;;;;;;;3.47;1.23;;;;;;;;;;1037323;28;100100;-78
2021/09/18 13:49:11;;;;;;;3.60;1.02;;;;;;;;;;1041739;28;100547;-76
2021/09/18 13:49:56;;;;;;;3.53;1.08;;;;;;;;;;1037490;28;100106;-78
2021/09/18 13:50:41;;;;;;;4.93;1.05;;;;;;;;;;1050164;27;99892;-79
2021/09/18 13:51:25;;;;;;;5.63;1.30;;;;;;;;;;1006569;27;1545127;-75
2021/09/18 13:52:09;;;;;;;7.75;1.40;;;;;;;;;;1050404;27;99753;-76
2021/09/18 13:52:53;;;;;;;3.30;0.93;;;;;;;;;;1063348;27;99775;-78
2021/09/18 13:53:38;;;;;;;4.47;1.25;;;;;;;;;;1065713;22;99418;-79
2021/09/18 13:54:21;;;;;;;2.75;1.27;;;;;;;;;;1042125;28;99846;-81
2021/09/18 13:55:05;;;;;;;5.40;1.58;;;;;;;;;;1037933;28;99846;-79
2021/09/18 13:55:51;;;;;;;6.43;1.48;;;;;;;;;;1063504;27;99782;-81
2021/09/18 13:56:34;;;;;;;5.35;1.35;;;;;;;;;;1037900;28;99861;-80
2021/09/18 13:57:19;;;;;;;3.08;1.27;;;;;;;;;;1038029;28;100021;-78
2021/09/18 13:58:03;;;;;;;5.70;1.35;;;;;;;;;;1050530;27;99761;-79
2021/09/18 13:58:48;;;;;;;3.08;0.93;;;;;;;;;;1037662;28;99863;-76
2021/09/18 13:59:31;;;;;;;4.53;1.35;;;;;;;;;;1045964;27;99828;-79
2021/09/18 14:00:16;;;;;;;3.00;1.27;;;;;;;;;;1042026;28;99822;-78
2021/09/18 14:01:00;;;;;;;2.42;0.90;;;;;;;;;;1046104;27;99740;-76
2021/09/18 14:01:45;;;;;;;4.10;1.23;;;;;;;;;;1037612;28;100006;-77
2021/09/18 14:02:26;;;;;;;4.27;1.40;;;;;;;;;;933903;27;3602125;-80
2021/09/18 14:03:09;;;;;;;7.80;1.30;;;;;;;;;;1007172;27;1560800;-79
2021/09/18 14:03:52;;;;;;;4.43;1.30;;;;;;;;;;1050607;27;99750;-79
2021/09/18 14:04:37;;;;;;;5.18;1.25;;;;;;;;;;1038062;28;99775;-82
2021/09/18 14:05:22;;;;;;;3.20;1.00;;;;;;;;;;1038212;28;99899;-79
2021/09/18 14:06:06;;;;;;;5.50;1.37;;;;;;;;;;1007390;27;1565728;-82
2021/09/18 14:06:48;;;;;;;2.92;1.10;;;;;;;;;;1037685;28;99873;-81
2021/09/18 14:07:34;;;;;;;3.38;0.80;;;;;;;;;;1041659;27;100122;-80
2021/09/18 14:08:17;;;;;;;3.17;0.90;;;;;;;;;;1063248;27;100217;-82
2021/09/18 14:09:07;;;;;;;3.08;1.35;;;;;;;;;;1050979;27;99934;-79
2021/09/18 14:09:51;;;;;;;4.28;0.93;;;;;;;;;;1063099;27;99796;-77
2021/09/18 14:10:37;;;;;;;8.18;1.02;;;;;;;;;;1045123;27;100102;-78
